Fraser Lake, Canada
Current Conditions -  °F | °C
As of 2:11 AM on Sunday 21 Dec 2014 (Local Time) from CYXS Reporting Station
Light Snow Light Snow  
Wind Chill: 32°   Ceiling: 300
Heat Index: 32°   Visibility: 1.2mi
Dew Point: 32°   Wind: 2mph
Humidity: 100%   Direction: NA
Pressure: 29.25"   Gusts: NA
Location:  54.05°N, 124.78°W
Report Text: CYXS 211011Z AUTO VRB02KT 1 1/4SM -SN BKN003 OVC011 00/00 A2925 RMK ICG SLP930
Loading
Personal Weather Stations






























Interactive Weather Map New forecast layout! Learn more

10-Day Weather Forecast

Advertisements
Track Severe Weather on mobile